createdAt,value
2022-08-22T00:00:22.950Z,14.4
2022-08-22T00:01:18.791Z,14.5
2022-08-22T00:02:20.602Z,14.6
2022-08-22T00:03:17.071Z,16.6
2022-08-22T00:03:18.373Z,14.4
2022-08-22T00:04:07.599Z,14.6
2022-08-22T00:05:08.648Z,14.6
2022-08-22T00:06:07.079Z,14.6
2022-08-22T00:07:29.129Z,14.6
2022-08-22T00:08:15.494Z,14.6
2022-08-22T00:09:28.313Z,14.6
2022-08-22T00:10:06.989Z,14.6
2022-08-22T00:11:28.152Z,14.6
2022-08-22T00:12:19.894Z,14.6
2022-08-22T00:13:17.328Z,14.6
2022-08-22T00:14:22.524Z,14.6
2022-08-22T00:15:46.573Z,14.7
2022-08-22T00:16:21.940Z,14.7
2022-08-22T00:17:16.874Z,14.7
2022-08-22T00:18:24.869Z,14.7
2022-08-22T00:19:18.322Z,14.7
2022-08-22T00:20:32.247Z,14.8
2022-08-22T00:21:24.558Z,14.8
2022-08-22T00:22:28.259Z,14.8
2022-08-22T00:23:19.430Z,14.7
2022-08-22T00:24:22.987Z,14.8
2022-08-22T00:25:30.213Z,14.8
2022-08-22T00:26:16.333Z,14.8
2022-08-22T00:27:24.118Z,14.8
2022-08-22T00:28:20.672Z,14.8
2022-08-22T00:29:21.778Z,14.7
2022-08-22T00:30:15.793Z,14.7
2022-08-22T00:31:16.219Z,14.6
2022-08-22T00:32:24.388Z,14.6
2022-08-22T00:33:18.605Z,14.6
2022-08-22T00:34:22.712Z,14.6
2022-08-22T00:35:21.717Z,14.6
2022-08-22T00:36:18.952Z,14.6
2022-08-22T00:37:20.426Z,14.6
2022-08-22T00:38:18.664Z,14.6
2022-08-22T00:39:20.711Z,14.6
2022-08-22T00:40:08.037Z,14.6
2022-08-22T00:41:22.562Z,14.6
2022-08-22T00:42:35.873Z,14.6
2022-08-22T00:43:19.824Z,14.6
2022-08-22T00:44:26.581Z,14.7
2022-08-22T00:45:17.579Z,14.7
2022-08-22T00:46:16.849Z,14.7
2022-08-22T00:47:15.709Z,14.7
2022-08-22T00:48:24.568Z,14.6
2022-08-22T00:49:22.034Z,14.7
2022-08-22T00:50:16.375Z,14.7
2022-08-22T00:51:17.010Z,14.7
2022-08-22T00:52:23.210Z,14.7
2022-08-22T00:53:18.640Z,14.8
2022-08-22T00:54:22.392Z,14.8
2022-08-22T00:55:21.947Z,14.8
2022-08-22T00:56:23.912Z,14.8
2022-08-22T00:57:23.234Z,14.8
2022-08-22T00:58:20.803Z,14.8
2022-08-22T00:59:27.035Z,14.8
2022-08-22T01:00:12.690Z,14.8
2022-08-22T01:01:17.353Z,14.8
2022-08-22T01:02:19.123Z,14.8
2022-08-22T01:03:21.264Z,14.8
2022-08-22T01:04:19.968Z,14.8
2022-08-22T01:05:20.988Z,14.8
2022-08-22T01:06:21.803Z,14.8
2022-08-22T01:07:23.720Z,14.8
2022-08-22T01:08:16.557Z,14.8
2022-08-22T01:09:24.010Z,14.8
2022-08-22T01:10:09.415Z,14.8
2022-08-22T01:11:26.091Z,14.9
2022-08-22T01:12:24.105Z,14.9
2022-08-22T01:13:35.930Z,14.9
2022-08-22T01:14:07.690Z,14.9
2022-08-22T01:15:19.019Z,14.9
2022-08-22T01:16:19.229Z,14.9
2022-08-22T01:17:19.262Z,14.9
2022-08-22T01:18:26.523Z,15
2022-08-22T01:19:23.933Z,14.8
2022-08-22T01:20:21.137Z,14.8
2022-08-22T01:21:28.419Z,14.8
2022-08-22T01:22:21.900Z,14.8
2022-08-22T01:23:21.843Z,14.8
2022-08-22T01:24:21.622Z,14.8
2022-08-22T01:25:27.816Z,14.8
2022-08-22T01:26:27.744Z,14.8
2022-08-22T01:27:20.192Z,14.8
2022-08-22T01:28:27.518Z,14.8
2022-08-22T01:29:33.985Z,14.9
2022-08-22T01:30:21.062Z,14.9
2022-08-22T01:31:22.892Z,14.8
2022-08-22T01:32:20.176Z,14.8
2022-08-22T01:33:17.803Z,14.8
2022-08-22T01:34:14.844Z,14.8
2022-08-22T01:35:25.563Z,14.8
2022-08-22T01:36:22.223Z,14.9
2022-08-22T01:37:20.727Z,14.9
2022-08-22T01:38:20.822Z,14.8
2022-08-22T01:39:21.888Z,14.8
2022-08-22T01:40:07.357Z,14.8
2022-08-22T01:41:23.303Z,14.8
2022-08-22T01:42:22.804Z,14.8
2022-08-22T01:44:02.931Z,14.8
2022-08-22T01:44:14.310Z,14.8
2022-08-22T01:45:25.450Z,14.8
2022-08-22T01:46:25.683Z,14.8
2022-08-22T01:47:19.611Z,14.8
2022-08-22T01:48:21.273Z,14.8
2022-08-22T01:49:24.606Z,14.8
2022-08-22T01:50:19.487Z,14.8
2022-08-22T01:51:22.104Z,14.8
2022-08-22T01:52:23.881Z,14.8
2022-08-22T01:53:20.375Z,14.8
2022-08-22T01:54:20.900Z,14.7
2022-08-22T01:55:16.133Z,14.7
2022-08-22T01:56:17.046Z,14.7
2022-08-22T01:57:18.816Z,14.7
2022-08-22T01:58:20.224Z,14.6
2022-08-22T01:59:35.918Z,14.6
2022-08-22T02:00:39.634Z,14.7
2022-08-22T02:01:07.479Z,14.8
2022-08-22T02:02:27.879Z,14.7
2022-08-22T02:03:22.123Z,14.7
2022-08-22T02:04:22.196Z,14.8
2022-08-22T02:05:24.517Z,14.8
2022-08-22T02:06:21.216Z,14.8
2022-08-22T02:07:18.215Z,14.8
2022-08-22T02:08:20.687Z,14.9
2022-08-22T02:09:27.749Z,14.9
2022-08-22T02:10:10.513Z,14.8
2022-08-22T02:11:32.338Z,14.8
2022-08-22T02:12:24.184Z,14.8
2022-08-22T02:13:24.160Z,14.6
2022-08-22T02:14:22.792Z,14.6
2022-08-22T02:15:23.854Z,14.6
2022-08-22T02:16:19.276Z,14.6
2022-08-22T02:17:18.736Z,14.6
2022-08-22T02:18:06.787Z,14.6
2022-08-22T02:19:24.008Z,14.7
2022-08-22T02:20:24.561Z,14.7
2022-08-22T02:21:24.460Z,14.7
2022-08-22T02:22:22.903Z,14.8
2022-08-22T02:23:22.654Z,14.8
2022-08-22T02:24:22.333Z,14.8
2022-08-22T02:25:18.738Z,14.7
2022-08-22T02:26:15.364Z,14.7
2022-08-22T02:27:10.483Z,14.7
2022-08-22T02:28:19.228Z,14.8
2022-08-22T02:29:15.130Z,14.8
2022-08-22T02:30:20.758Z,14.8
2022-08-22T02:31:21.034Z,14.7
2022-08-22T02:32:20.531Z,14.7
2022-08-22T02:33:19.654Z,14.7
2022-08-22T02:34:16.513Z,14.8
2022-08-22T02:35:23.529Z,14.8
2022-08-22T02:36:18.207Z,14.8
2022-08-22T02:37:19.499Z,14.8
2022-08-22T02:38:26.098Z,14.9
2022-08-22T02:39:07.662Z,14.9
2022-08-22T02:40:08.097Z,14.9
2022-08-22T02:41:18.483Z,14.8
2022-08-22T02:42:15.409Z,14.8
2022-08-22T02:43:18.581Z,14.8
2022-08-22T02:44:17.465Z,14.8
2022-08-22T02:45:22.341Z,14.8
2022-08-22T02:46:27.190Z,14.7
2022-08-22T02:47:19.021Z,14.6
2022-08-22T02:48:17.859Z,14.6
2022-08-22T02:49:19.032Z,14.7
2022-08-22T02:50:22.075Z,14.7
2022-08-22T02:51:20.544Z,14.7
2022-08-22T02:52:20.354Z,14.6
2022-08-22T02:53:18.606Z,14.6
2022-08-22T02:54:16.232Z,14.6
2022-08-22T02:55:21.226Z,14.6
2022-08-22T02:56:24.196Z,14.6
2022-08-22T02:57:14.391Z,14.6
2022-08-22T02:58:25.743Z,14.6
2022-08-22T02:59:17.270Z,14.6
2022-08-22T03:00:36.720Z,14.6
2022-08-22T03:01:17.099Z,14.7
2022-08-22T03:02:20.530Z,14.8
2022-08-22T03:03:18.473Z,14.7
2022-08-22T03:04:20.107Z,14.7
2022-08-22T03:05:20.398Z,14.7
2022-08-22T03:06:26.362Z,14.6
2022-08-22T03:07:21.946Z,14.6
2022-08-22T03:08:23.108Z,14.6
2022-08-22T03:09:22.337Z,14.6
2022-08-22T03:10:07.487Z,14.6
2022-08-22T03:11:18.300Z,14.6
2022-08-22T03:12:22.511Z,14.6
2022-08-22T03:13:19.632Z,14.6
2022-08-22T03:14:26.135Z,14.6
2022-08-22T03:15:19.817Z,14.6
2022-08-22T03:16:17.833Z,14.7
2022-08-22T03:17:17.855Z,14.7
2022-08-22T03:18:21.164Z,14.7
2022-08-22T03:19:24.001Z,14.6
2022-08-22T03:20:25.589Z,14.4
2022-08-22T03:21:07.372Z,14.5
2022-08-22T03:22:22.033Z,14.5
2022-08-22T03:23:29.203Z,14.5
2022-08-22T03:24:19.252Z,14.5
2022-08-22T03:25:19.938Z,14.4
2022-08-22T03:26:26.066Z,14.4
2022-08-22T03:27:36.600Z,14.4
2022-08-22T03:28:16.649Z,14.4
2022-08-22T03:29:22.136Z,14.4
2022-08-22T03:30:18.197Z,14.4
2022-08-22T03:31:23.578Z,14.3
2022-08-22T03:32:21.387Z,14.4
2022-08-22T03:33:18.866Z,14.4
2022-08-22T03:34:20.224Z,14.3
2022-08-22T03:35:19.048Z,14.3
2022-08-22T03:36:20.170Z,14.3
2022-08-22T03:37:21.967Z,14.3
2022-08-22T03:38:24.458Z,14.3
2022-08-22T03:39:21.442Z,14.3
2022-08-22T03:40:07.974Z,14.3
2022-08-22T03:41:10.152Z,14.3
2022-08-22T03:42:18.571Z,14.3
2022-08-22T03:43:16.515Z,14.3
2022-08-22T03:44:19.454Z,14.3
2022-08-22T03:45:22.066Z,14.4
2022-08-22T03:46:22.387Z,14.4
2022-08-22T03:47:15.330Z,14.4
2022-08-22T03:48:22.799Z,14.5
2022-08-22T03:49:11.055Z,14.5
2022-08-22T03:50:21.808Z,14.4
2022-08-22T03:51:18.054Z,14.5
2022-08-22T03:52:23.296Z,14.6
2022-08-22T03:53:23.660Z,14.6
2022-08-22T03:54:18.899Z,14.5
2022-08-22T03:55:17.779Z,14.5
2022-08-22T03:56:20.564Z,14.4
2022-08-22T03:57:20.331Z,14.5
2022-08-22T03:58:32.178Z,14.4
2022-08-22T03:59:17.273Z,14.3
2022-08-22T04:00:20.246Z,14.3
2022-08-22T04:01:22.330Z,14.3
2022-08-22T04:02:46.560Z,14.2
2022-08-22T04:03:12.709Z,14.2
2022-08-22T04:04:17.203Z,14.3
2022-08-22T04:05:17.370Z,14.3
2022-08-22T04:06:22.317Z,14.3
2022-08-22T04:07:35.625Z,14.3
2022-08-22T04:08:22.020Z,14.3
2022-08-22T04:09:23.584Z,14.2
2022-08-22T04:10:08.289Z,14.2
2022-08-22T04:11:22.552Z,14.3
2022-08-22T04:12:21.371Z,14.3
2022-08-22T04:13:19.594Z,14.3
2022-08-22T04:14:17.066Z,14.3
2022-08-22T04:15:16.861Z,14.3
2022-08-22T04:16:25.658Z,14.3
2022-08-22T04:17:17.392Z,14.3
2022-08-22T04:18:17.836Z,14.3
2022-08-22T04:19:15.281Z,14.3
2022-08-22T04:20:23.172Z,14.3
2022-08-22T04:21:17.240Z,14.3
2022-08-22T04:22:20.115Z,14.3
2022-08-22T04:23:19.953Z,14.3
2022-08-22T04:24:16.269Z,14.3
2022-08-22T04:25:22.864Z,14.3
2022-08-22T04:26:16.674Z,14.3
2022-08-22T04:27:24.527Z,14.3
2022-08-22T04:28:13.577Z,14.3
2022-08-22T04:29:24.445Z,14.1
2022-08-22T04:30:20.083Z,14
2022-08-22T04:31:16.172Z,13.8
2022-08-22T04:32:19.972Z,13.8
2022-08-22T04:33:17.278Z,13.8
2022-08-22T04:34:22.414Z,13.8
2022-08-22T04:35:18.150Z,13.8
2022-08-22T04:36:25.472Z,13.9
2022-08-22T04:37:22.043Z,13.9
2022-08-22T04:38:24.657Z,13.9
2022-08-22T04:39:22.356Z,13.8
2022-08-22T04:40:07.784Z,13.8
2022-08-22T04:41:14.846Z,13.8
2022-08-22T04:42:36.501Z,13.8
2022-08-22T04:43:26.240Z,13.9
2022-08-22T04:44:18.901Z,13.9
2022-08-22T04:45:19.429Z,13.9
2022-08-22T04:46:22.415Z,13.8
2022-08-22T04:47:19.090Z,13.8
2022-08-22T04:48:22.845Z,14
2022-08-22T04:49:22.750Z,13.9
2022-08-22T04:50:23.619Z,13.9
2022-08-22T04:51:23.157Z,13.9
2022-08-22T04:52:18.740Z,13.9
2022-08-22T04:53:21.329Z,13.9
2022-08-22T04:54:19.882Z,13.9
2022-08-22T04:55:16.631Z,14
2022-08-22T04:56:22.316Z,13.9
2022-08-22T04:57:17.865Z,13.9
2022-08-22T04:58:18.755Z,14
2022-08-22T04:59:16.285Z,14
2022-08-22T05:00:17.656Z,14
2022-08-22T05:01:19.894Z,14
2022-08-22T05:02:28.457Z,14
2022-08-22T05:03:22.172Z,14
2022-08-22T05:04:20.100Z,14
2022-08-22T05:05:17.909Z,13.8
2022-08-22T05:06:19.859Z,13.8
2022-08-22T05:07:24.178Z,13.7
2022-08-22T05:08:16.226Z,13.8
2022-08-22T05:09:21.431Z,13.9
2022-08-22T05:10:16.094Z,13.8
2022-08-22T05:11:19.283Z,13.8
2022-08-22T05:12:22.251Z,13.8
2022-08-22T05:13:18.772Z,13.8
2022-08-22T05:14:21.954Z,13.8
2022-08-22T05:15:25.498Z,13.9
2022-08-22T05:16:18.691Z,13.9
2022-08-22T05:17:24.759Z,13.8
2022-08-22T05:18:20.508Z,13.8
2022-08-22T05:19:31.854Z,13.9
2022-08-22T05:20:22.146Z,13.9
2022-08-22T05:21:20.423Z,14
2022-08-22T05:22:16.854Z,14
2022-08-22T05:23:21.881Z,14.1
2022-08-22T05:24:20.568Z,14.2
2022-08-22T05:25:18.459Z,14.2
2022-08-22T05:26:19.049Z,14.3
2022-08-22T05:27:17.676Z,14.4
2022-08-22T05:28:16.135Z,14.4
2022-08-22T05:29:20.989Z,14.4
2022-08-22T05:30:17.449Z,14.6
2022-08-22T05:31:27.349Z,14.8
2022-08-22T05:32:21.031Z,14.8
2022-08-22T05:33:21.815Z,14.8
2022-08-22T05:34:21.454Z,14.8
2022-08-22T05:35:16.969Z,14.8
2022-08-22T05:36:17.117Z,14.8
2022-08-22T05:37:22.046Z,14.9
2022-08-22T05:38:22.560Z,14.9
2022-08-22T05:39:19.315Z,14.9
2022-08-22T05:40:07.659Z,15.1
2022-08-22T05:41:16.902Z,15.3
2022-08-22T05:42:17.859Z,15.3
2022-08-22T05:43:21.506Z,15.4
2022-08-22T05:44:14.574Z,15.4
2022-08-22T05:45:16.646Z,15.4
2022-08-22T05:46:16.895Z,15.5
2022-08-22T05:47:21.305Z,15.6
2022-08-22T05:48:20.607Z,15.7
2022-08-22T05:49:17.971Z,15.8
2022-08-22T05:50:19.765Z,15.8
2022-08-22T05:51:22.176Z,15.9
2022-08-22T05:52:14.379Z,15.9
2022-08-22T05:53:19.169Z,16.1
2022-08-22T05:54:21.511Z,16.3
2022-08-22T05:55:23.203Z,16.3
2022-08-22T05:56:27.565Z,16.4
2022-08-22T05:57:20.167Z,16.5
2022-08-22T05:58:16.155Z,16.5
2022-08-22T05:59:17.087Z,16.6
2022-08-22T06:00:23.976Z,16.7
2022-08-22T06:01:21.944Z,16.7
2022-08-22T06:02:23.146Z,16.8
2022-08-22T06:03:21.720Z,16.9
2022-08-22T06:04:18.433Z,16.9
2022-08-22T06:05:20.713Z,16.9
2022-08-22T06:06:17.917Z,16.9
2022-08-22T06:07:17.002Z,16.9
2022-08-22T06:08:19.702Z,16.8
2022-08-22T06:09:22.475Z,16.8
2022-08-22T06:10:07.644Z,16.8
2022-08-22T06:11:20.262Z,16.8
2022-08-22T06:12:26.356Z,16.9
2022-08-22T06:13:26.383Z,16.9
2022-08-22T06:14:20.088Z,17.1
2022-08-22T06:15:20.753Z,17.2
2022-08-22T06:16:20.472Z,17.3
2022-08-22T06:17:21.918Z,17.3
2022-08-22T06:18:25.390Z,17.3
2022-08-22T06:19:24.190Z,17.3
2022-08-22T06:20:19.775Z,17.5
2022-08-22T06:21:21.526Z,17.6
2022-08-22T06:22:22.759Z,17.6
2022-08-22T06:23:18.020Z,17.7
2022-08-22T06:24:15.674Z,17.7
2022-08-22T06:25:22.220Z,17.8
2022-08-22T06:26:25.130Z,17.8
2022-08-22T06:27:16.150Z,17.8
2022-08-22T06:28:18.014Z,17.9
2022-08-22T06:29:20.974Z,17.9
2022-08-22T06:30:22.552Z,17.9
2022-08-22T06:31:18.565Z,18
2022-08-22T06:33:03.211Z,17.9
2022-08-22T06:33:16.766Z,18.1
2022-08-22T06:34:21.969Z,18.3
2022-08-22T06:35:16.769Z,18.4
2022-08-22T06:36:24.674Z,18.4
2022-08-22T06:37:16.663Z,18.4
2022-08-22T06:38:19.524Z,18.6
2022-08-22T06:39:25.067Z,18.6
2022-08-22T06:40:08.624Z,18.6
2022-08-22T06:41:17.781Z,18.9
2022-08-22T06:42:21.098Z,19.3
2022-08-22T06:43:25.477Z,19.3
2022-08-22T06:44:19.037Z,19.3
2022-08-22T06:45:23.459Z,19
2022-08-22T06:46:15.746Z,19
2022-08-22T06:47:22.767Z,19.5
2022-08-22T06:48:21.995Z,19.6
2022-08-22T06:49:17.031Z,20.1
2022-08-22T06:50:17.942Z,20.5
2022-08-22T06:51:17.957Z,20.4
2022-08-22T06:52:18.934Z,20.7
2022-08-22T06:53:18.005Z,20.7
2022-08-22T06:54:16.119Z,20.1
2022-08-22T06:55:21.760Z,20
2022-08-22T06:56:18.323Z,20
2022-08-22T06:57:16.172Z,20.1
2022-08-22T06:58:22.422Z,20.1
2022-08-22T06:59:17.134Z,20
2022-08-22T07:00:27.545Z,19.7
2022-08-22T07:01:20.017Z,19.7
2022-08-22T07:02:22.218Z,19.5
2022-08-22T07:03:19.567Z,19.3
2022-08-22T07:04:23.350Z,19.3
2022-08-22T07:05:22.019Z,19.3
2022-08-22T07:06:18.597Z,19.3
2022-08-22T07:07:14.044Z,19.3
2022-08-22T07:08:15.361Z,19.2
2022-08-22T07:09:25.771Z,19
2022-08-22T07:10:08.767Z,19
2022-08-22T07:11:16.660Z,19.1
2022-08-22T07:12:23.931Z,19.1
2022-08-22T07:13:17.174Z,19.1
2022-08-22T07:14:15.686Z,19.1
2022-08-22T07:15:16.598Z,18.9
2022-08-22T07:16:17.777Z,18.8
2022-08-22T07:17:22.237Z,18.8
2022-08-22T07:18:18.863Z,18.8
2022-08-22T07:19:18.281Z,18.6
2022-08-22T07:20:21.551Z,18.5
2022-08-22T07:21:25.497Z,18.4
2022-08-22T07:22:21.246Z,18.4
2022-08-22T07:23:18.724Z,18.2
2022-08-22T07:24:17.773Z,18.2
2022-08-22T07:25:19.129Z,18
2022-08-22T07:26:19.709Z,18
2022-08-22T07:27:22.645Z,18.1
2022-08-22T07:28:20.388Z,18.1
2022-08-22T07:29:28.902Z,18.2
2022-08-22T07:30:29.901Z,18.3
2022-08-22T07:31:20.123Z,18.3
2022-08-22T07:32:20.963Z,18.4
2022-08-22T07:33:31.204Z,18.5
2022-08-22T07:34:24.736Z,18.5
2022-08-22T07:35:18.715Z,18.5
2022-08-22T07:36:28.445Z,18.7
2022-08-22T07:37:21.034Z,18.8
2022-08-22T07:38:15.844Z,18.8
2022-08-22T07:39:24.177Z,18.9
2022-08-22T07:40:08.267Z,18.9
2022-08-22T07:41:23.424Z,19
2022-08-22T07:42:24.963Z,19
2022-08-22T07:43:22.352Z,19
2022-08-22T07:44:22.232Z,19.3
2022-08-22T07:45:17.623Z,19.3
2022-08-22T07:46:17.771Z,19.4
2022-08-22T07:47:13.256Z,19.6
2022-08-22T07:48:29.937Z,19.7
2022-08-22T07:49:18.515Z,19.7
2022-08-22T07:50:21.323Z,19.8
2022-08-22T07:51:20.279Z,19.6
2022-08-22T07:52:20.029Z,19.6
2022-08-22T07:53:19.849Z,19.8
2022-08-22T07:54:22.432Z,19.8
2022-08-22T07:55:21.710Z,19.8
2022-08-22T07:56:18.284Z,19.9
2022-08-22T07:57:19.662Z,19.9
2022-08-22T07:58:22.751Z,19.9
2022-08-22T07:59:26.893Z,20.1
2022-08-22T08:00:21.355Z,20.1
2022-08-22T08:01:19.107Z,20.1
2022-08-22T08:02:18.162Z,20.3
2022-08-22T08:03:17.581Z,20.3
2022-08-22T08:04:19.763Z,20.5
2022-08-22T08:05:13.172Z,20.5
2022-08-22T08:06:08.364Z,20.6
2022-08-22T08:07:22.535Z,20.7
2022-08-22T08:08:19.996Z,20.8
2022-08-22T08:09:22.533Z,20.8
2022-08-22T08:10:13.170Z,20.9
2022-08-22T08:11:16.195Z,20.9
2022-08-22T08:12:31.373Z,20.8
2022-08-22T08:13:07.779Z,20.8
2022-08-22T08:14:21.390Z,20.7
2022-08-22T08:15:20.883Z,20.8
2022-08-22T08:16:21.035Z,20.8
2022-08-22T08:17:36.032Z,20.8
2022-08-22T08:18:22.527Z,20.8
2022-08-22T08:19:19.283Z,20.8
2022-08-22T08:20:28.524Z,21.1
2022-08-22T08:21:22.351Z,21.2
2022-08-22T08:22:29.571Z,21.2
2022-08-22T08:23:10.841Z,21.3
2022-08-22T08:24:26.880Z,21.4
2022-08-22T08:25:17.550Z,21.3
2022-08-22T08:26:20.974Z,21.3
2022-08-22T08:27:21.927Z,21.6
2022-08-22T08:28:23.645Z,21.8
2022-08-22T08:29:24.747Z,21.8
2022-08-22T08:30:10.037Z,21.7
2022-08-22T08:31:21.286Z,21.5
2022-08-22T08:32:20.178Z,21.5
2022-08-22T08:33:30.160Z,21.3
2022-08-22T08:34:22.399Z,21.4
2022-08-22T08:35:16.530Z,21.4
2022-08-22T08:36:16.037Z,21.5
2022-08-22T08:37:16.979Z,21.6
2022-08-22T08:38:07.888Z,21.8
2022-08-22T08:39:25.920Z,21.9
2022-08-22T08:40:08.097Z,21.9
2022-08-22T08:41:14.413Z,21.9
2022-08-22T08:42:19.832Z,22
2022-08-22T08:43:18.068Z,22
2022-08-22T08:44:25.545Z,21.8
2022-08-22T08:45:21.559Z,21.9
2022-08-22T08:46:25.279Z,22
2022-08-22T08:47:23.390Z,21.8
2022-08-22T08:48:22.381Z,21.9
2022-08-22T08:49:11.070Z,22
2022-08-22T08:50:22.956Z,22.1
2022-08-22T08:51:27.573Z,22.1
2022-08-22T08:52:18.562Z,22.1
2022-08-22T08:53:19.486Z,22.2
2022-08-22T08:54:25.099Z,22.3
2022-08-22T08:55:26.722Z,22.3
2022-08-22T08:56:27.372Z,22.3
2022-08-22T08:57:14.987Z,22.1
2022-08-22T08:58:23.897Z,22.1
2022-08-22T08:59:24.008Z,22.1
2022-08-22T09:00:20.301Z,22.1
2022-08-22T09:01:09.197Z,22.5
2022-08-22T09:02:25.882Z,22.2
2022-08-22T09:03:30.661Z,21.9
2022-08-22T09:04:20.593Z,22.2
2022-08-22T09:05:28.689Z,22.4
2022-08-22T09:06:20.887Z,22.4
2022-08-22T09:07:18.820Z,22.2
2022-08-22T09:08:31.824Z,22.6
2022-08-22T09:09:17.197Z,22.5
2022-08-22T09:10:08.649Z,22.5
2022-08-22T09:11:30.546Z,22.6
2022-08-22T09:12:19.262Z,22.9
2022-08-22T09:13:17.585Z,22.9
2022-08-22T09:14:22.982Z,22.7
2022-08-22T09:15:20.260Z,22.7
2022-08-22T09:16:25.196Z,22.4
2022-08-22T09:17:21.078Z,22.4
2022-08-22T09:18:22.516Z,22.4
2022-08-22T09:19:29.643Z,22.4
2022-08-22T09:20:21.823Z,22.4
2022-08-22T09:21:10.772Z,22.3
2022-08-22T09:22:20.971Z,21.8
2022-08-22T09:23:15.482Z,21.7
2022-08-22T09:24:25.327Z,21.7
2022-08-22T09:25:20.604Z,21.9
2022-08-22T09:26:16.516Z,21.9
2022-08-22T09:27:20.684Z,21.8
2022-08-22T09:28:32.494Z,21.8
2022-08-22T09:29:09.915Z,22.1
2022-08-22T09:30:30.855Z,22.1
2022-08-22T09:31:57.053Z,21.9
2022-08-22T09:32:25.765Z,21.9
2022-08-22T09:33:19.622Z,22.2
2022-08-22T09:34:28.062Z,22.3
2022-08-22T09:35:24.582Z,22.2
2022-08-22T09:37:25.189Z,22.5
2022-08-22T09:38:21.603Z,22.5
2022-08-22T09:39:30.487Z,22.9
2022-08-22T09:40:08.307Z,23.1
2022-08-22T09:40:29.154Z,22.2
2022-08-22T09:41:15.315Z,23.1
2022-08-22T09:42:19.618Z,23.1
2022-08-22T09:43:25.578Z,23.1
2022-08-22T09:44:29.710Z,22.9
2022-08-22T09:45:19.407Z,23
2022-08-22T09:46:23.535Z,23.1
2022-08-22T09:47:26.555Z,23.1
2022-08-22T09:48:21.379Z,23.1
2022-08-22T09:49:21.423Z,23.1
2022-08-22T09:50:22.503Z,23.1
2022-08-22T09:51:37.543Z,23.1
2022-08-22T09:52:40.938Z,23.1
2022-08-22T09:53:20.828Z,23.1
2022-08-22T09:54:23.903Z,23.3
2022-08-22T09:55:37.096Z,23.3
2022-08-22T09:56:21.785Z,23.3
2022-08-22T09:57:18.877Z,23.4
2022-08-22T09:58:18.948Z,23.4
2022-08-22T09:59:22.667Z,23.6
2022-08-22T10:00:25.174Z,23.6
2022-08-22T10:02:29.612Z,23.6
2022-08-22T10:03:23.122Z,23.6
2022-08-22T10:04:26.283Z,23.1
2022-08-22T10:05:35.096Z,23.1
2022-08-22T10:06:18.427Z,23.1
2022-08-22T10:07:16.215Z,23.4
2022-08-22T10:08:28.360Z,22.9
2022-08-22T10:09:34.187Z,23.1
2022-08-22T10:10:07.491Z,23.1
2022-08-22T10:11:20.364Z,22.8
2022-08-22T10:12:17.834Z,22.8
2022-08-22T10:13:18.426Z,22.8
2022-08-22T10:14:27.212Z,23
2022-08-22T10:15:22.371Z,23
2022-08-22T10:16:21.991Z,23.6
2022-08-22T10:17:25.934Z,23.6
2022-08-22T10:18:18.894Z,23.7
2022-08-22T10:19:22.064Z,23.5
2022-08-22T10:20:19.874Z,23.5
2022-08-22T10:21:24.924Z,23.1
2022-08-22T10:22:20.472Z,23.3
2022-08-22T10:23:23.190Z,23.3
2022-08-22T10:24:29.999Z,23.5
2022-08-22T10:25:20.468Z,23.5
2022-08-22T10:26:28.091Z,23.6
2022-08-22T10:27:16.664Z,23.6
2022-08-22T10:28:14.862Z,23.6
2022-08-22T10:29:22.743Z,23.7
2022-08-22T10:30:20.740Z,23.6
2022-08-22T10:31:28.646Z,23.6
2022-08-22T10:32:29.015Z,23.5
2022-08-22T10:33:31.123Z,23.5
2022-08-22T10:34:26.786Z,23.9
2022-08-22T10:35:19.381Z,23.6
2022-08-22T10:36:19.967Z,23.8
2022-08-22T10:37:17.077Z,23.8
2022-08-22T10:38:21.730Z,23.6
2022-08-22T10:39:26.703Z,23.5
2022-08-22T10:40:08.547Z,23.5
2022-08-22T10:41:17.612Z,23.3
2022-08-22T10:42:23.103Z,23.4
2022-08-22T10:43:32.993Z,23.5
2022-08-22T10:44:21.518Z,23.6
2022-08-22T10:45:39.892Z,23.9
2022-08-22T10:46:27.928Z,23.9
2022-08-22T10:47:07.645Z,24.1
2022-08-22T10:48:14.358Z,24.1
2022-08-22T10:49:20.004Z,23.5
2022-08-22T10:50:24.200Z,23.5
2022-08-22T10:51:30.712Z,24
2022-08-22T10:52:21.124Z,24
2022-08-22T10:53:06.783Z,24
2022-08-22T10:54:26.383Z,23.9
2022-08-22T10:55:17.641Z,23.9
2022-08-22T10:56:29.424Z,24.2
2022-08-22T10:57:25.084Z,24.1
2022-08-22T10:58:23.814Z,24.1
2022-08-22T10:59:16.405Z,24.1
2022-08-22T11:00:30.676Z,24.1
2022-08-22T11:01:44.347Z,24.3
2022-08-22T11:02:21.320Z,24.2
2022-08-22T11:03:27.685Z,24.2
2022-08-22T11:04:17.095Z,23.9
2022-08-22T11:05:17.038Z,23.9
2022-08-22T11:06:18.635Z,24
2022-08-22T11:07:23.989Z,23.9
2022-08-22T11:08:17.115Z,24
2022-08-22T11:09:24.196Z,23.8
2022-08-22T11:10:07.083Z,23.8
2022-08-22T11:11:21.796Z,23.8
2022-08-22T11:12:15.706Z,23.9
2022-08-22T11:13:21.335Z,23.9
2022-08-22T11:14:20.510Z,24.3
2022-08-22T11:15:39.631Z,24.4
2022-08-22T11:16:23.112Z,24.4
2022-08-22T11:17:39.792Z,23.8
2022-08-22T11:18:19.067Z,23.8
2022-08-22T11:19:21.587Z,23.9
2022-08-22T11:20:23.837Z,24.1
2022-08-22T11:21:20.521Z,24.1
2022-08-22T11:22:31.376Z,24.1
2022-08-22T11:23:22.154Z,24.3
2022-08-22T11:24:56.664Z,24.4
2022-08-22T11:25:13.366Z,24.4
2022-08-22T11:26:13.299Z,24.3
2022-08-22T11:27:25.354Z,24.5
2022-08-22T11:28:19.608Z,24.6
2022-08-22T11:29:20.462Z,24.6
2022-08-22T11:30:22.329Z,24.6
2022-08-22T11:31:19.896Z,24.4
2022-08-22T11:32:25.505Z,24.5
2022-08-22T11:33:22.215Z,24.5
2022-08-22T11:34:22.472Z,24.5
2022-08-22T11:35:21.723Z,24.4
2022-08-22T11:36:30.993Z,24.3
2022-08-22T11:37:42.475Z,24.3
2022-08-22T11:38:15.697Z,23.8
2022-08-22T11:39:29.128Z,23.8
2022-08-22T11:40:07.597Z,23.8
2022-08-22T11:41:22.466Z,24.4
2022-08-22T11:42:33.820Z,24.5
2022-08-22T11:43:17.317Z,24.5
2022-08-22T11:44:29.839Z,24.5
2022-08-22T11:45:23.510Z,24.1
2022-08-22T11:46:27.645Z,24
2022-08-22T11:47:18.742Z,23.9
2022-08-22T11:48:16.557Z,23.9
2022-08-22T11:49:20.889Z,24
2022-08-22T11:50:24.601Z,23.8
2022-08-22T11:51:17.877Z,23.8
2022-08-22T11:52:24.778Z,23.9
2022-08-22T11:53:18.785Z,24.1
2022-08-22T11:54:15.915Z,24.1
2022-08-22T11:55:23.588Z,23.8
2022-08-22T11:56:28.515Z,24
2022-08-22T11:57:07.762Z,23.9
2022-08-22T11:58:22.879Z,23.8
2022-08-22T11:59:17.724Z,23.8
2022-08-22T12:00:25.506Z,23.8
2022-08-22T12:01:21.544Z,24.1
2022-08-22T12:02:21.646Z,24.4
2022-08-22T12:03:28.018Z,24.5
2022-08-22T12:04:23.092Z,24.5
2022-08-22T12:05:30.478Z,24.6
2022-08-22T12:06:19.346Z,24.6
2022-08-22T12:07:19.291Z,24.4
2022-08-22T12:08:25.329Z,24.4
2022-08-22T12:09:27.842Z,24.4
2022-08-22T12:10:07.961Z,24.4
2022-08-22T12:11:13.629Z,24.7
2022-08-22T12:12:23.919Z,24.7
2022-08-22T12:13:18.692Z,24.9
2022-08-22T12:14:18.150Z,24.9
2022-08-22T12:15:23.584Z,24.8
2022-08-22T12:16:20.904Z,24.8
2022-08-22T12:18:03.584Z,24.6
2022-08-22T12:18:22.208Z,24.6
2022-08-22T12:19:15.310Z,24.8
2022-08-22T12:20:21.319Z,24.7
2022-08-22T12:21:14.602Z,24.8
2022-08-22T12:22:16.880Z,24.8
2022-08-22T12:23:20.916Z,24.9
2022-08-22T12:24:25.042Z,24.7
2022-08-22T12:25:24.591Z,24.3
2022-08-22T12:26:24.151Z,24.3
2022-08-22T12:27:30.750Z,24.3
2022-08-22T12:28:22.597Z,24.3
2022-08-22T12:29:39.773Z,24.8
2022-08-22T12:30:22.035Z,24.8
2022-08-22T12:31:24.207Z,24.7
2022-08-22T12:32:31.858Z,24.7
2022-08-22T12:33:24.074Z,24.7
2022-08-22T12:34:21.073Z,24.7
2022-08-22T12:35:18.771Z,24.7
2022-08-22T12:36:22.551Z,24.8
2022-08-22T12:37:15.370Z,24.9
2022-08-22T12:38:38.200Z,24.9
2022-08-22T12:39:28.253Z,24.9
2022-08-22T12:40:11.676Z,25.1
2022-08-22T12:41:37.170Z,25.1
2022-08-22T12:42:12.699Z,24.8
2022-08-22T12:43:25.950Z,24.7
2022-08-22T12:44:20.888Z,24.6
2022-08-22T12:45:26.278Z,24.6
2022-08-22T12:46:19.145Z,24.7
2022-08-22T12:47:19.342Z,24.7
2022-08-22T12:48:18.645Z,24.6
2022-08-22T12:49:20.039Z,24.6
2022-08-22T12:50:17.724Z,24.4
2022-08-22T12:51:22.542Z,24.6
2022-08-22T12:52:20.577Z,24.6
2022-08-22T12:53:24.719Z,24.6
2022-08-22T12:54:20.410Z,24.6
2022-08-22T12:55:19.794Z,24.4
2022-08-22T12:56:19.164Z,24.1
2022-08-22T12:57:28.208Z,24.2
2022-08-22T12:58:21.978Z,24.2
2022-08-22T12:59:21.930Z,24.1
2022-08-22T13:00:29.330Z,24.2
2022-08-22T13:01:36.513Z,24
2022-08-22T13:02:19.988Z,24
2022-08-22T13:03:19.673Z,23.7
2022-08-22T13:04:37.356Z,23.7
2022-08-22T13:05:26.781Z,23.4
2022-08-22T13:06:21.660Z,23.4
2022-08-22T13:07:15.729Z,23.2
2022-08-22T13:08:22.588Z,23.3
2022-08-22T13:09:32.912Z,23.3
2022-08-22T13:10:10.314Z,23.3
2022-08-22T13:11:30.744Z,23.3
2022-08-22T13:12:23.964Z,23.6
2022-08-22T13:13:40.884Z,23.6
2022-08-22T13:14:28.036Z,23.7
2022-08-22T13:15:21.379Z,23.7
2022-08-22T13:16:21.710Z,23.9
2022-08-22T13:17:28.895Z,23.8
2022-08-22T13:18:35.671Z,23.8
2022-08-22T13:19:19.077Z,23.8
2022-08-22T13:20:14.240Z,23.8
2022-08-22T13:21:22.593Z,23.9